Time;durP1;ratioP1;P1;durP2;ratioP2;P2;SDS_P1;SDS_P2;PMS_P1;PMS_P2;Temp;Humidity;BMP_temperature;BMP_pressure;BME280_temperature;BME280_humidity;BME280_pressure;Samples;Min_cycle;Max_cycle;Signal;HPM_P1;HPM_P2
2023/12/15 00:01:08;;;;;;;1.13;1.02;;;;;;;20.09;39.28;102560.59;5069329;28;20107;-73
2023/12/15 00:03:34;;;;;;;1.38;1.27;;;;;;;20.11;39.25;102565.78;5087667;28;20039;-73
2023/12/15 00:05:59;;;;;;;1.50;1.38;;;;;;;20.12;39.22;102572.75;5025508;28;20086;-74
2023/12/15 00:08:25;;;;;;;1.90;1.20;;;;;;;20.10;39.27;102556.16;5088741;28;20444;-73
2023/12/15 00:10:50;;;;;;;1.30;1.20;;;;;;;20.03;39.09;102549.75;5032820;28;20792;-73
2023/12/15 00:13:16;;;;;;;1.25;1.23;;;;;;;20.17;39.18;102581.09;5083672;28;20039;-72
2023/12/15 00:15:42;;;;;;;1.70;1.30;;;;;;;20.12;39.26;102578.03;5047024;28;20645;-73
2023/12/15 00:18:07;;;;;;;1.23;1.20;;;;;;;20.03;39.03;102574.41;5071815;28;20795;-73
2023/12/15 00:20:33;;;;;;;1.60;1.45;;;;;;;20.12;39.21;102583.31;5070093;28;20055;-73
2023/12/15 00:22:59;;;;;;;1.30;1.20;;;;;;;20.09;39.23;102587.06;5085870;28;20048;-73
2023/12/15 00:25:24;;;;;;;1.65;1.40;;;;;;;20.07;39.17;102575.78;5031723;28;20097;-73
2023/12/15 00:27:50;;;;;;;1.45;1.35;;;;;;;20.10;39.46;102578.13;5085851;28;20043;-73
2023/12/15 00:30:15;;;;;;;1.10;1.10;;;;;;;20.10;39.21;102582.59;5033803;28;20036;-73
2023/12/15 00:32:41;;;;;;;1.33;1.23;;;;;;;20.03;39.24;102590.25;5089800;28;20093;-73
2023/12/15 00:35:07;;;;;;;1.15;1.05;;;;;;;20.05;39.26;102587.47;5029611;28;20077;-73
2023/12/15 00:37:32;;;;;;;1.40;1.30;;;;;;;20.03;39.19;102577.03;5083337;28;20046;-73
2023/12/15 00:39:58;;;;;;;1.40;1.30;;;;;;;20.06;39.28;102587.34;5032437;28;20768;-72
2023/12/15 00:42:23;;;;;;;1.20;1.20;;;;;;;20.08;39.07;102597.78;5067743;28;20368;-73
2023/12/15 00:44:49;;;;;;;1.38;1.27;;;;;;;20.05;39.22;102595.41;5089592;28;20050;-73
2023/12/15 00:47:14;;;;;;;1.33;1.10;;;;;;;20.05;39.28;102590.97;5031517;28;20424;-73
2023/12/15 00:49:41;;;;;;;1.67;1.40;;;;;;;20.01;39.23;102588.72;5090608;28;20380;-73
2023/12/15 00:52:06;;;;;;;1.30;1.20;;;;;;;19.99;39.20;102585.41;5032044;28;20578;-73
2023/12/15 00:54:32;;;;;;;1.20;1.10;;;;;;;20.00;39.29;102598.47;5082878;28;20033;-73
2023/12/15 00:56:57;;;;;;;1.25;1.20;;;;;;;19.95;39.08;102587.50;5030140;28;20146;-73
2023/12/15 00:59:23;;;;;;;1.42;1.33;;;;;;;20.03;39.30;102602.66;5086452;28;20042;-72
2023/12/15 01:01:48;;;;;;;1.23;1.05;;;;;;;19.98;39.27;102599.59;5031270;28;20806;-73
2023/12/15 01:04:14;;;;;;;1.70;1.33;;;;;;;19.84;39.33;102585.78;5086851;28;20055;-73
2023/12/15 01:06:39;;;;;;;1.20;1.10;;;;;;;20.02;39.26;102619.50;5070595;28;20052;-73
2023/12/15 01:09:05;;;;;;;1.40;1.30;;;;;;;19.95;39.43;102607.81;5084501;28;20547;-73
2023/12/15 01:11:31;;;;;;;1.10;1.02;;;;;;;19.99;39.33;102628.53;5074496;28;20036;-72
2023/12/15 01:13:57;;;;;;;1.55;1.15;;;;;;;19.92;39.26;102616.81;5040294;28;20035;-73
2023/12/15 01:16:22;;;;;;;1.55;1.45;;;;;;;19.96;39.30;102627.97;5082855;28;20043;-73
2023/12/15 01:18:48;;;;;;;1.60;1.50;;;;;;;20.00;39.24;102638.16;5028106;28;20036;-73
2023/12/15 01:21:13;;;;;;;2.03;1.75;;;;;;;19.99;39.33;102641.75;5082334;28;20028;-72
2023/12/15 01:23:39;;;;;;;1.00;1.00;;;;;;;19.91;39.41;102638.94;5028210;28;20048;-73
2023/12/15 01:26:05;;;;;;;0.95;0.95;;;;;;;19.98;39.33;102650.66;5083746;28;20035;-73
2023/12/15 01:28:30;;;;;;;1.27;1.17;;;;;;;20.00;39.31;102650.53;5031734;28;20468;-73
2023/12/15 01:30:56;;;;;;;1.48;1.38;;;;;;;19.90;39.34;102630.19;5089824;28;20039;-73
2023/12/15 01:33:22;;;;;;;1.25;1.15;;;;;;;19.99;39.32;102651.50;5012916;28;20036;-73
2023/12/15 01:35:47;;;;;;;1.38;1.27;;;;;;;19.82;39.24;102624.75;5079255;28;20047;-73
2023/12/15 01:38:13;;;;;;;1.42;1.33;;;;;;;19.99;39.43;102654.97;5029902;28;20119;-73
2023/12/15 01:40:38;;;;;;;1.40;1.30;;;;;;;19.99;39.18;102662.09;5085639;28;20035;-73
2023/12/15 01:43:04;;;;;;;1.23;1.00;;;;;;;19.88;39.38;102639.22;5032219;28;20036;-73
2023/12/15 01:45:29;;;;;;;1.20;1.10;;;;;;;19.98;39.38;102663.88;5075322;28;20052;-73
2023/12/15 01:47:55;;;;;;;0.98;0.98;;;;;;;19.98;39.26;102671.00;5032666;28;26003;-73
2023/12/15 01:50:21;;;;;;;2.08;1.50;;;;;;;20.01;39.26;102670.72;5085855;28;20032;-73
2023/12/15 01:52:47;;;;;;;0.93;0.93;;;;;;;20.02;39.23;102675.03;5025586;28;20492;-74
2023/12/15 01:55:12;;;;;;;1.20;1.10;;;;;;;19.98;39.37;102677.13;5088270;28;21779;-73
2023/12/15 01:57:38;;;;;;;1.77;1.33;;;;;;;19.95;39.32;102674.75;5067696;28;20047;-73
2023/12/15 02:00:08;;;;;;;1.23;1.10;;;;;;;19.92;39.48;102669.69;5082697;28;20071;-72
2023/12/15 02:02:37;;;;;;;1.40;1.30;;;;;;;19.97;39.39;102682.53;5050491;28;20438;-73
2023/12/15 02:05:04;;;;;;;1.27;0.98;;;;;;;19.92;39.31;102681.09;5057738;28;20036;-74
2023/12/15 02:07:30;;;;;;;1.50;1.40;;;;;;;19.92;39.15;102675.00;5072576;28;20448;-73
2023/12/15 02:09:57;;;;;;;1.30;1.20;;;;;;;19.97;39.17;102693.13;5043480;28;20100;-72
2023/12/15 02:12:23;;;;;;;1.40;1.30;;;;;;;19.88;39.13;102682.34;5086272;28;20401;-74
2023/12/15 02:14:48;;;;;;;0.90;0.90;;;;;;;20.00;39.35;102706.91;5027144;28;20043;-72
2023/12/15 02:17:14;;;;;;;1.85;1.08;;;;;;;19.98;39.30;102718.59;5063418;28;20039;-73
2023/12/15 02:19:39;;;;;;;1.23;1.13;;;;;;;19.99;39.40;102731.66;5089235;28;20039;-73
2023/12/15 02:22:05;;;;;;;1.73;1.50;;;;;;;19.98;39.30;102731.81;5027044;28;20059;-73
2023/12/15 02:24:30;;;;;;;1.30;1.20;;;;;;;19.98;39.33;102731.81;5083158;28;20043;-73
2023/12/15 02:26:56;;;;;;;1.38;1.27;;;;;;;19.96;39.20;102731.94;5030820;28;20032;-73
2023/12/15 02:29:23;;;;;;;1.77;1.35;;;;;;;19.99;39.28;102738.75;5080507;28;20040;-73
2023/12/15 02:31:48;;;;;;;1.30;1.20;;;;;;;19.95;39.27;102732.91;5028938;28;20059;-73
2023/12/15 02:34:14;;;;;;;1.10;1.02;;;;;;;19.95;39.31;102722.34;5075507;28;20074;-73
2023/12/15 02:36:39;;;;;;;1.40;1.10;;;;;;;19.94;39.37;102728.59;5005906;28;20571;-73
2023/12/15 02:39:05;;;;;;;1.02;0.90;;;;;;;19.96;39.36;102731.09;5081496;28;20282;-73
2023/12/15 02:41:31;;;;;;;1.45;1.20;;;;;;;19.94;39.34;102720.66;5072324;28;20039;-73
2023/12/15 02:43:57;;;;;;;1.80;1.23;;;;;;;19.96;39.26;102733.75;5044767;28;20036;-73
2023/12/15 02:46:23;;;;;;;1.55;1.30;;;;;;;19.92;39.39;102731.34;5084877;28;20043;-73
2023/12/15 02:48:48;;;;;;;1.20;1.10;;;;;;;19.93;39.35;102732.22;5031835;28;20028;-73
2023/12/15 02:51:31;;;;;;;1.17;1.05;;;;;;;19.90;39.37;102733.28;5078585;28;20775;-72
2023/12/15 02:53:59;;;;;;;1.92;1.23;;;;;;;19.92;39.40;102741.94;5051418;28;20027;-73
2023/12/15 02:56:25;;;;;;;1.52;1.40;;;;;;;19.94;39.36;102746.28;5082111;28;20069;-73
2023/12/15 02:58:51;;;;;;;1.85;1.45;;;;;;;19.91;39.30;102742.06;5035521;28;20111;-73
2023/12/15 03:01:17;;;;;;;1.30;1.20;;;;;;;19.84;39.43;102728.56;5061675;28;20115;-72
2023/12/15 03:03:42;;;;;;;1.67;1.17;;;;;;;19.80;39.48;102732.44;5076903;28;20039;-73
2023/12/15 03:06:08;;;;;;;1.50;1.40;;;;;;;19.88;39.34;102743.16;5028300;28;21137;-73
2023/12/15 03:08:34;;;;;;;1.13;1.05;;;;;;;19.88;39.28;102753.75;5078482;28;20651;-73
2023/12/15 03:11:00;;;;;;;1.13;0.98;;;;;;;19.84;39.38;102752.34;5032736;28;20490;-73
2023/12/15 03:13:25;;;;;;;1.17;1.13;;;;;;;19.89;39.39;102757.22;5085581;28;20435;-73
2023/12/15 03:15:51;;;;;;;1.30;1.20;;;;;;;19.89;39.38;102765.16;5035521;28;20040;-72
2023/12/15 03:18:17;;;;;;;1.27;1.08;;;;;;;19.87;39.47;102761.81;5089988;28;20031;-73
2023/12/15 03:20:44;;;;;;;1.20;1.10;;;;;;;19.87;39.40;102772.38;5043011;28;20086;-73
2023/12/15 03:23:10;;;;;;;1.63;1.17;;;;;;;19.85;39.38;102767.25;5081177;28;20036;-73
2023/12/15 03:25:36;;;;;;;0.93;0.90;;;;;;;19.82;39.37;102748.16;5064035;28;20120;-73
2023/12/15 03:28:01;;;;;;;1.52;1.20;;;;;;;19.86;39.40;102758.34;5077945;28;20048;-73
2023/12/15 03:30:27;;;;;;;1.17;1.08;;;;;;;19.84;39.43;102764.72;5024990;28;20047;-73
2023/12/15 03:32:52;;;;;;;1.10;1.10;;;;;;;19.78;39.55;102757.34;5087307;28;20070;-73
2023/12/15 03:35:18;;;;;;;1.35;1.25;;;;;;;19.82;39.52;102764.03;5029974;28;20407;-73
2023/12/15 03:37:43;;;;;;;1.30;1.20;;;;;;;19.72;39.61;102748.13;5079580;28;20539;-73
2023/12/15 03:40:10;;;;;;;1.58;1.02;;;;;;;19.80;39.52;102772.09;5026522;28;20133;-73
2023/12/15 03:42:35;;;;;;;1.23;1.08;;;;;;;19.77;39.47;102758.31;5081737;28;20071;-72
2023/12/15 03:45:01;;;;;;;1.40;1.30;;;;;;;19.80;39.53;102763.31;5059040;28;20048;-73
2023/12/15 03:47:27;;;;;;;1.00;1.00;;;;;;;19.80;39.54;102771.25;5076041;28;20087;-73
2023/12/15 03:49:52;;;;;;;2.05;1.10;;;;;;;19.72;39.59;102763.97;5030252;28;20028;-75
2023/12/15 03:52:18;;;;;;;1.23;1.13;;;;;;;19.76;39.49;102765.41;5083088;28;20040;-73
2023/12/15 03:54:43;;;;;;;1.08;1.08;;;;;;;19.78;39.47;102773.19;5031972;28;20032;-72
2023/12/15 03:57:09;;;;;;;1.77;1.10;;;;;;;19.74;39.49;102774.41;5080843;28;20530;-73
2023/12/15 03:59:39;;;;;;;1.02;0.93;;;;;;;19.77;39.25;102782.09;5028971;28;20400;-74
2023/12/15 04:02:05;;;;;;;1.45;1.20;;;;;;;19.71;39.54;102770.22;5064746;28;20035;-73
2023/12/15 04:04:32;;;;;;;1.58;1.20;;;;;;;19.77;39.52;102788.22;5084048;28;20209;-73
2023/12/15 04:06:58;;;;;;;1.35;1.20;;;;;;;19.78;39.46;102786.41;5027567;28;21048;-73
2023/12/15 04:09:23;;;;;;;1.35;1.17;;;;;;;19.76;39.78;102783.91;5081109;28;20048;-73
2023/12/15 04:11:49;;;;;;;1.65;1.20;;;;;;;19.78;39.55;102797.00;5027324;28;20054;-72
2023/12/15 04:14:15;;;;;;;1.33;1.20;;;;;;;19.77;39.54;102801.44;5083086;28;20027;-73
2023/12/15 04:16:41;;;;;;;0.88;0.88;;;;;;;19.76;39.62;102794.50;5045979;28;20055;-73
2023/12/15 04:19:07;;;;;;;1.15;1.05;;;;;;;19.78;39.50;102797.84;5056180;28;20110;-73
2023/12/15 04:21:33;;;;;;;1.08;1.00;;;;;;;19.73;39.43;102788.59;5083332;28;20036;-74
2023/12/15 04:23:58;;;;;;;1.42;1.27;;;;;;;19.75;39.44;102795.47;5026806;28;26106;-73
2023/12/15 04:26:24;;;;;;;1.30;1.10;;;;;;;19.78;39.26;102800.47;5083550;28;20043;-73
2023/12/15 04:28:49;;;;;;;1.30;1.10;;;;;;;19.77;39.50;102808.53;5021868;28;20539;-73
2023/12/15 04:31:15;;;;;;;1.73;1.40;;;;;;;19.75;39.54;102805.16;5085535;28;20036;-73
2023/12/15 04:33:41;;;;;;;1.35;1.13;;;;;;;19.64;39.39;102776.19;5040220;28;20459;-73
2023/12/15 04:36:16;;;;;;;1.17;1.08;;;;;;;19.74;39.40;102800.84;5070978;28;20082;-73
2023/12/15 04:38:42;;;;;;;0.77;0.77;;;;;;;19.71;39.57;102814.34;5066375;28;20040;-73
2023/12/15 04:41:25;;;;;;;1.65;0.98;;;;;;;19.77;39.53;102822.59;5082085;28;20109;-73
2023/12/15 04:43:51;;;;;;;1.92;1.30;;;;;;;19.76;39.52;102823.56;5030265;28;20063;-72
2023/12/15 04:46:28;;;;;;;1.45;1.20;;;;;;;19.69;39.44;102805.69;5083283;28;20115;-73
2023/12/15 04:48:54;;;;;;;1.90;1.40;;;;;;;19.69;39.44;102821.56;5028184;28;20655;-73
2023/12/15 04:51:20;;;;;;;2.17;1.27;;;;;;;19.76;39.65;102838.59;5080540;28;20043;-73
2023/12/15 04:53:47;;;;;;;1.27;1.17;;;;;;;19.66;39.48;102821.81;5038857;28;20105;-73
2023/12/15 04:56:13;;;;;;;1.00;0.90;;;;;;;19.73;39.39;102831.72;5083769;28;20024;-73
2023/12/15 04:58:38;;;;;;;1.45;1.33;;;;;;;19.75;39.48;102843.03;5062296;28;20798;-73
2023/12/15 05:01:05;;;;;;;2.00;1.30;;;;;;;19.78;39.56;102855.16;5086521;28;20027;-73
2023/12/15 05:03:33;;;;;;;1.23;1.13;;;;;;;19.76;39.52;102855.28;5032488;28;20163;-73
2023/12/15 05:05:59;;;;;;;1.35;1.25;;;;;;;19.75;39.55;102856.25;5083970;28;20181;-72
2023/12/15 05:08:25;;;;;;;1.73;1.20;;;;;;;19.73;39.58;102860.81;5026443;28;20043;-73
2023/12/15 05:10:50;;;;;;;1.25;1.15;;;;;;;19.71;39.54;102859.25;5088857;28;20039;-74
2023/12/15 05:13:16;;;;;;;1.10;1.05;;;;;;;19.76;39.78;102870.31;5035219;28;20046;-73
2023/12/15 05:15:42;;;;;;;1.25;1.05;;;;;;;19.76;39.46;102873.78;5080690;28;20605;-73
2023/12/15 05:18:07;;;;;;;1.35;1.17;;;;;;;19.76;39.53;102872.94;5036946;28;20093;-73
2023/12/15 05:20:36;;;;;;;1.10;1.00;;;;;;;19.66;39.59;102859.66;5083423;28;20027;-73
2023/12/15 05:23:03;;;;;;;0.60;0.60;;;;;;;19.76;39.51;102872.94;5068958;28;20075;-73
2023/12/15 05:25:29;;;;;;;0.90;0.90;;;;;;;19.67;39.52;102863.97;5084097;28;20058;-72
2023/12/15 05:27:54;;;;;;;1.35;1.17;;;;;;;19.77;39.54;102874.63;5027874;28;20036;-73
2023/12/15 05:30:20;;;;;;;1.23;1.13;;;;;;;19.75;39.54;102871.25;5082471;28;20036;-74
2023/12/15 05:32:45;;;;;;;1.38;1.27;;;;;;;19.74;39.54;102870.41;5037787;28;20032;-73
2023/12/15 05:35:11;;;;;;;1.20;1.00;;;;;;;19.75;39.48;102885.34;5084431;28;20040;-73
2023/12/15 05:37:36;;;;;;;1.15;1.08;;;;;;;19.79;39.48;102889.38;5030100;28;20040;-73
2023/12/15 05:40:03;;;;;;;1.50;1.27;;;;;;;19.77;39.53;102887.84;5084285;28;20051;-73
2023/12/15 05:42:28;;;;;;;1.40;1.30;;;;;;;19.67;39.55;102879.84;5025928;28;20053;-74
2023/12/15 05:44:54;;;;;;;1.80;1.10;;;;;;;19.74;39.62;102882.78;5067771;28;20032;-73
2023/12/15 05:47:19;;;;;;;1.88;1.08;;;;;;;19.72;39.66;102893.50;5081290;28;20543;-73
2023/12/15 05:49:45;;;;;;;0.90;0.88;;;;;;;19.74;39.77;102904.78;5057333;27;20804;-73
2023/12/15 05:52:10;;;;;;;0.80;0.80;;;;;;;19.74;39.66;102915.34;5083034;28;20517;-73
2023/12/15 05:54:41;;;;;;;1.73;1.27;;;;;;;19.72;39.71;102927.03;5031484;28;20140;-73
2023/12/15 05:57:07;;;;;;;1.27;1.10;;;;;;;19.70;39.55;102913.09;5084765;28;20039;-73
2023/12/15 05:59:33;;;;;;;1.13;1.02;;;;;;;19.70;39.63;102905.16;5035143;28;20081;-74
2023/12/15 06:01:58;;;;;;;1.83;1.10;;;;;;;19.71;39.75;102905.03;5083820;28;20047;-73
2023/12/15 06:04:24;;;;;;;1.65;1.02;;;;;;;19.67;39.79;102902.78;5027282;28;20047;-73
2023/12/15 06:06:50;;;;;;;1.02;0.90;;;;;;;19.73;39.78;102908.38;5085637;28;20039;-73
2023/12/15 06:09:16;;;;;;;1.30;1.15;;;;;;;19.73;39.79;102896.97;5065668;28;20440;-73
2023/12/15 06:11:42;;;;;;;2.90;1.27;;;;;;;19.72;39.78;102898.78;5079275;28;20369;-74
2023/12/15 06:14:11;;;;;;;1.20;1.10;;;;;;;19.72;39.79;102906.72;5030055;28;20206;-72
2023/12/15 06:16:36;;;;;;;1.75;1.35;;;;;;;19.69;39.80;102909.63;5078539;28;20715;-71
2023/12/15 06:19:02;;;;;;;1.02;0.90;;;;;;;19.68;39.69;102901.81;5033965;28;20043;-73
2023/12/15 06:21:28;;;;;;;1.75;1.17;;;;;;;19.67;39.82;102908.91;5078369;28;20058;-73
2023/12/15 06:23:54;;;;;;;1.55;1.20;;;;;;;19.72;39.84;102919.09;5036408;28;20050;-72
2023/12/15 06:26:21;;;;;;;1.75;1.38;;;;;;;19.70;39.81;102924.50;5078571;28;20472;-70
2023/12/15 06:28:47;;;;;;;2.00;1.10;;;;;;;19.70;39.91;102927.16;5029109;28;20048;-71
2023/12/15 06:31:13;;;;;;;1.23;1.10;;;;;;;19.69;39.78;102920.19;5085178;28;20204;-71
2023/12/15 06:33:39;;;;;;;1.63;0.93;;;;;;;19.69;39.77;102928.13;5063227;28;20066;-70
2023/12/15 06:36:05;;;;;;;1.15;1.05;;;;;;;19.69;39.95;102936.06;5082103;28;20040;-71
2023/12/15 06:38:31;;;;;;;1.55;1.10;;;;;;;19.73;39.89;102952.50;5028848;28;20523;-73
2023/12/15 06:40:56;;;;;;;1.10;1.00;;;;;;;19.73;39.79;102958.63;5083480;28;20066;-73
2023/12/15 06:43:22;;;;;;;0.95;0.90;;;;;;;19.72;39.88;102954.28;5028634;28;20028;-72
2023/12/15 06:45:48;;;;;;;1.73;0.93;;;;;;;19.75;39.87;102953.19;5085533;28;20096;-73
2023/12/15 06:48:13;;;;;;;2.00;1.30;;;;;;;19.73;39.95;102948.03;5029845;28;20402;-73
2023/12/15 06:50:39;;;;;;;0.77;0.77;;;;;;;19.52;39.88;102916.28;5082328;28;20044;-73
2023/12/15 06:53:05;;;;;;;1.75;1.38;;;;;;;19.53;39.91;102915.31;5030563;28;20048;-73
2023/12/15 06:55:30;;;;;;;1.55;1.15;;;;;;;19.70;39.84;102945.66;5097694;27;20040;-75
2023/12/15 06:57:56;;;;;;;0.80;0.80;;;;;;;19.72;39.94;102953.47;5068062;28;20044;-74
2023/12/15 07:00:21;;;;;;;1.10;0.95;;;;;;;19.64;39.77;102954.09;5082404;28;20043;-74
2023/12/15 07:02:47;;;;;;;1.40;1.27;;;;;;;19.71;39.93;102959.72;5034029;28;20044;-75
2023/12/15 07:05:12;;;;;;;0.95;0.90;;;;;;;19.72;39.97;102964.88;5079282;28;20135;-72
2023/12/15 07:07:38;;;;;;;0.82;0.73;;;;;;;19.72;39.90;102956.94;5053524;28;20043;-72
2023/12/15 07:10:04;;;;;;;0.98;0.93;;;;;;;19.63;40.10;102943.66;5060722;28;20117;-73
2023/12/15 07:12:30;;;;;;;1.42;1.20;;;;;;;19.71;39.82;102959.72;5077974;28;20043;-74
2023/12/15 07:14:56;;;;;;;1.73;1.15;;;;;;;19.73;39.83;102971.84;5042067;28;20043;-74
2023/12/15 07:17:21;;;;;;;1.23;0.95;;;;;;;19.75;39.89;102969.94;5076537;28;20554;-74
2023/12/15 07:19:47;;;;;;;1.95;1.25;;;;;;;19.75;39.86;102972.56;5015999;28;20784;-74
2023/12/15 07:22:13;;;;;;;1.20;1.10;;;;;;;19.54;40.01;102948.72;5078989;28;20036;-73
2023/12/15 07:24:41;;;;;;;1.27;0.80;;;;;;;19.73;39.91;102982.41;5033661;28;20046;-73
2023/12/15 07:27:06;;;;;;;0.98;0.93;;;;;;;19.72;39.97;102993.09;5076365;28;20502;-74
2023/12/15 07:29:32;;;;;;;1.23;1.13;;;;;;;19.73;39.91;102992.97;5027778;28;20032;-74
2023/12/15 07:31:57;;;;;;;0.93;0.90;;;;;;;19.90;39.30;102995.06;5088913;28;20128;-74
2023/12/15 07:34:23;;;;;;;0.95;0.85;;;;;;;20.42;38.99;102995.16;5030932;28;20052;-73
2023/12/15 07:36:49;;;;;;;1.13;1.02;;;;;;;20.75;38.13;103007.28;5084677;28;20028;-74
2023/12/15 07:39:21;;;;;;;1.42;1.00;;;;;;;20.93;38.05;103005.69;5025762;28;20043;-73
2023/12/15 07:41:49;;;;;;;1.00;0.85;;;;;;;21.12;37.42;103018.16;5065412;28;20043;-74
2023/12/15 07:44:15;;;;;;;1.60;1.20;;;;;;;21.15;37.65;103019.69;5107525;27;20173;-73
2023/12/15 07:46:41;;;;;;;1.52;1.10;;;;;;;21.01;37.90;103026.22;5045071;28;20040;-74
2023/12/15 07:49:08;;;;;;;1.15;1.05;;;;;;;20.98;37.93;103029.94;5062663;28;20446;-74
2023/12/15 07:51:34;;;;;;;1.20;1.00;;;;;;;20.88;38.22;103031.75;5062728;28;20040;-73
2023/12/15 07:54:00;;;;;;;1.60;1.27;;;;;;;20.76;38.07;103035.44;5054485;28;20115;-73
2023/12/15 07:56:27;;;;;;;2.00;1.08;;;;;;;20.86;38.40;103054.03;5078369;28;20040;-73
2023/12/15 07:58:55;;;;;;;1.30;1.05;;;;;;;20.84;38.41;103058.63;5035711;28;20345;-71
2023/12/15 08:01:23;;;;;;;1.15;1.05;;;;;;;20.78;38.66;103078.50;5084534;28;20032;-73
2023/12/15 08:03:48;;;;;;;1.67;1.08;;;;;;;20.63;38.72;103063.94;5028203;28;20698;-72
2023/12/15 08:06:16;;;;;;;1.15;1.08;;;;;;;20.63;38.76;103080.66;5064304;28;20045;-73
2023/12/15 08:08:42;;;;;;;1.17;1.02;;;;;;;20.52;38.94;103067.50;5076933;28;20060;-75
2023/12/15 08:11:09;;;;;;;1.65;0.80;;;;;;;20.58;38.87;103085.50;5032120;28;20040;-73
2023/12/15 08:13:36;;;;;;;1.05;0.95;;;;;;;20.54;38.94;103091.19;5085316;28;20096;-74
2023/12/15 08:16:03;;;;;;;0.88;0.88;;;;;;;20.56;39.03;103099.84;5038362;28;20906;-73
2023/12/15 08:18:29;;;;;;;1.70;1.30;;;;;;;20.47;39.04;103099.66;5088379;28;20043;-74
2023/12/15 08:20:55;;;;;;;2.47;1.08;;;;;;;20.44;39.15;103099.06;5041581;28;20777;-73
2023/12/15 08:23:20;;;;;;;2.35;1.00;;;;;;;20.41;39.46;103100.16;5070641;28;20039;-73
2023/12/15 08:25:46;;;;;;;1.70;1.20;;;;;;;20.40;39.28;103108.19;5085158;28;20036;-74
2023/12/15 08:28:11;;;;;;;1.65;1.13;;;;;;;20.25;39.25;103080.38;5034607;28;20090;-72
2023/12/15 08:30:38;;;;;;;1.98;1.08;;;;;;;20.26;39.33;103085.53;5083094;28;20037;-73
2023/12/15 08:33:03;;;;;;;1.48;1.00;;;;;;;20.35;39.46;103113.06;5029772;28;20849;-74
2023/12/15 08:35:29;;;;;;;1.20;1.10;;;;;;;20.23;39.82;103104.31;5086949;28;20062;-72
2023/12/15 08:37:56;;;;;;;2.97;1.80;;;;;;;20.39;39.79;103123.25;5057118;27;20436;-74
2023/12/15 08:40:22;;;;;;;1.27;1.17;;;;;;;20.35;39.88;103126.28;5087214;28;20052;-69
2023/12/15 08:42:49;;;;;;;1.25;0.93;;;;;;;20.20;40.23;103113.34;5062401;28;20032;-73
2023/12/15 08:45:15;;;;;;;2.63;1.40;;;;;;;20.22;40.18;103114.06;5087393;28;20055;-73
2023/12/15 08:47:41;;;;;;;1.88;1.38;;;;;;;20.28;40.02;103131.22;5052028;28;20479;-72
2023/12/15 08:50:07;;;;;;;3.30;1.55;;;;;;;20.27;40.24;103128.72;5065919;28;20036;-81
2023/12/15 08:52:33;;;;;;;1.55;1.25;;;;;;;20.13;40.28;103116.63;5070566;28;20055;-80
2023/12/15 08:54:59;;;;;;;2.33;1.30;;;;;;;20.25;40.16;103142.06;5049829;28;20036;-80
2023/12/15 08:57:25;;;;;;;1.45;0.88;;;;;;;20.18;40.17;103141.75;5085507;28;20036;-81
2023/12/15 08:59:51;;;;;;;1.00;0.90;;;;;;;20.30;40.00;103161.06;5030859;28;20028;-79
2023/12/15 09:02:16;;;;;;;2.47;1.40;;;;;;;20.27;39.91;103156.00;5068051;28;20042;-80
2023/12/15 09:04:42;;;;;;;1.92;0.93;;;;;;;20.28;39.92;103157.69;5035121;28;20040;-78
2023/12/15 09:07:08;;;;;;;2.00;1.13;;;;;;;20.27;40.01;103166.59;5068051;28;20130;-80
2023/12/15 09:09:35;;;;;;;1.45;0.95;;;;;;;20.32;39.76;103174.16;5082538;28;20127;-80
2023/12/15 09:12:01;;;;;;;2.03;1.20;;;;;;;20.30;39.86;103184.03;5030714;28;20559;-79
2023/12/15 09:14:28;;;;;;;2.20;1.17;;;;;;;20.32;39.83;103201.47;5112845;27;20460;-79
2023/12/15 09:16:55;;;;;;;2.58;1.45;;;;;;;20.26;39.94;103203.75;5028770;28;22854;-79
2023/12/15 09:19:20;;;;;;;1.63;1.33;;;;;;;20.31;39.72;103215.66;5085150;28;20024;-81
2023/12/15 09:21:47;;;;;;;1.83;1.33;;;;;;;20.31;39.92;103212.19;5035995;28;20036;-80
2023/12/15 09:24:17;;;;;;;2.08;1.50;;;;;;;20.30;39.66;103205.22;5087949;28;20032;-80
2023/12/15 09:26:46;;;;;;;2.30;1.27;;;;;;;20.30;39.86;103214.00;5065633;28;20024;-80
2023/12/15 09:29:12;;;;;;;1.85;1.08;;;;;;;20.32;39.73;103216.50;5087399;28;20511;-80
2023/12/15 09:31:38;;;;;;;1.20;1.10;;;;;;;20.31;39.55;103234.19;5026824;28;20032;-80
2023/12/15 09:34:04;;;;;;;1.60;1.00;;;;;;;20.24;39.92;103225.06;5083833;28;20065;-79
2023/12/15 09:36:30;;;;;;;2.95;1.27;;;;;;;20.24;39.80;103217.13;5031080;28;20062;-78
2023/12/15 09:38:55;;;;;;;1.50;1.00;;;;;;;20.34;39.72;103233.94;5076516;28;20044;-79
2023/12/15 09:41:22;;;;;;;2.25;1.30;;;;;;;20.27;39.65;103218.66;5040841;27;20055;-80
2023/12/15 09:43:47;;;;;;;1.63;1.50;;;;;;;20.35;39.69;103232.97;5083590;28;20043;-79
2023/12/15 09:46:13;;;;;;;3.22;1.30;;;;;;;20.34;39.61;103230.44;5028391;28;20032;-80
2023/12/15 09:48:39;;;;;;;1.60;0.90;;;;;;;20.15;39.57;103202.84;5081610;28;20395;-80
2023/12/15 09:51:12;;;;;;;1.15;0.95;;;;;;;20.29;39.73;103219.38;5021815;28;20035;-80
2023/12/15 09:53:38;;;;;;;1.63;1.30;;;;;;;20.36;39.97;103236.44;5096320;27;22048;-81
2023/12/15 09:56:05;;;;;;;1.13;1.00;;;;;;;20.35;39.69;103240.06;5030638;28;20745;-80
2023/12/15 09:58:31;;;;;;;2.05;1.40;;;;;;;20.36;39.70;103253.16;5089053;28;20047;-80
2023/12/15 10:01:00;;;;;;;3.10;1.45;;;;;;;20.34;39.60;103256.91;5025118;28;21771;-80
2023/12/15 10:03:27;;;;;;;1.55;1.05;;;;;;;20.16;39.68;103232.78;5075799;28;20020;-80
2023/12/15 10:05:53;;;;;;;2.38;1.40;;;;;;;20.30;39.61;103258.13;5029120;28;20042;-78
2023/12/15 10:08:23;;;;;;;1.73;1.00;;;;;;;20.25;39.68;103255.00;5078748;28;20051;-79
2023/12/15 10:10:53;;;;;;;2.25;1.15;;;;;;;20.23;39.76;103247.19;5032358;28;26407;-79
2023/12/15 10:13:21;;;;;;;2.47;1.30;;;;;;;20.37;39.56;103259.31;5063802;28;20029;-80
2023/12/15 10:15:53;;;;;;;1.77;1.25;;;;;;;20.49;39.25;103248.59;5082878;28;20032;-77
2023/12/15 10:18:19;;;;;;;2.08;0.98;;;;;;;20.61;38.97;103270.56;5074608;28;20035;-80
2023/12/15 10:20:46;;;;;;;2.67;1.35;;;;;;;20.57;39.18;103273.59;5013939;28;20043;-79
2023/12/15 10:23:14;;;;;;;2.50;1.55;;;;;;;20.56;39.37;103274.56;5084088;28;20375;-80
2023/12/15 10:25:48;;;;;;;2.85;1.05;;;;;;;20.57;39.09;103277.06;5023010;28;20055;-79
2023/12/15 10:28:15;;;;;;;1.15;0.80;;;;;;;20.54;39.16;103279.13;5086082;28;20041;-80
2023/12/15 10:30:41;;;;;;;1.38;1.13;;;;;;;20.55;39.34;103281.66;5016336;28;20044;-79
2023/12/15 10:33:07;;;;;;;2.28;1.33;;;;;;;20.51;39.32;103275.78;5084570;28;20392;-80
2023/12/15 10:35:35;;;;;;;1.10;1.00;;;;;;;20.52;39.35;103272.16;5032736;28;20048;-80
2023/12/15 10:38:01;;;;;;;2.65;1.50;;;;;;;20.52;39.23;103282.75;5022875;28;20327;-81
2023/12/15 10:40:27;;;;;;;1.20;0.95;;;;;;;20.51;39.24;103285.53;5079312;28;20036;-79
2023/12/15 10:42:54;;;;;;;3.17;1.52;;;;;;;20.51;39.40;103285.53;5033928;28;20039;-79
2023/12/15 10:45:20;;;;;;;3.25;1.40;;;;;;;20.48;39.50;103280.50;5074492;28;20051;-79
2023/12/15 10:47:48;;;;;;;2.55;1.58;;;;;;;20.42;39.40;103271.22;5041596;28;20043;-78
2023/12/15 10:50:14;;;;;;;2.00;1.05;;;;;;;20.50;39.38;103286.50;5090257;28;20781;-79
2023/12/15 10:52:40;;;;;;;1.30;1.20;;;;;;;20.49;39.42;103274.22;5029305;28;20047;-79
2023/12/15 10:55:07;;;;;;;2.90;1.00;;;;;;;20.44;39.31;103271.09;5079278;28;20448;-80
2023/12/15 10:57:32;;;;;;;2.78;1.30;;;;;;;20.43;39.63;103280.84;5066444;28;20395;-76
2023/12/15 11:00:04;;;;;;;1.42;1.25;;;;;;;20.40;39.32;103274.94;5078613;28;20082;-78
2023/12/15 11:02:31;;;;;;;2.08;1.20;;;;;;;20.35;39.38;103275.31;5031191;28;20044;-79
2023/12/15 11:04:59;;;;;;;1.83;1.15;;;;;;;20.42;39.53;103289.75;5086095;28;20039;-80
2023/12/15 11:07:27;;;;;;;1.95;1.08;;;;;;;20.47;39.44;103294.69;5031956;28;20049;-78
2023/12/15 11:09:59;;;;;;;3.13;1.50;;;;;;;20.36;39.57;103282.28;5083175;28;20527;-79
2023/12/15 11:12:29;;;;;;;1.73;1.33;;;;;;;20.46;39.49;103291.16;5028434;28;20380;-80
2023/12/15 11:14:59;;;;;;;3.63;1.63;;;;;;;20.46;39.39;103290.31;5064831;28;20117;-79
2023/12/15 11:17:26;;;;;;;;;;;;;;;20.47;39.29;103300.81;5033470;28;20078;-79
2023/12/15 11:20:06;;;;;;;1.10;1.00;;;;;;;20.44;39.47;103303.69;5084458;28;20144;-79